TVS32R LGIR-LKPR
Flight info
| Callsign | TVS32R |
|---|---|
| Flight time | 2h 35m |
| Altitude | 36000 |
| Route | EPALO UM749 ATV DCT TALAS DCT LONTA UM749 UDVAR DCT TONDO DCT BEGLA DCT NAVTI DCT BODAL DCT VLM |
| Aircraft | A320/M-SDE2E3FGIJ1RWXYZ/LB1 |
Departure
| Time | 2026-05-07 17:06 |
|---|---|
| Airport | Heraklion International Nikos Kazantzakis Airport (LGIR) |
Arrival
| Time | 2026-05-07 19:41 |
|---|---|
| Airport | Václav Havel Airport Prague (LKPR) |
| Time | Latitude | Longitude | Altitude | Speed | Heading |
|---|---|---|---|---|---|
| 2026-05-07 16:33 | 35.33869 | 25.17547 | 91 ft | 0 kts | 314° |
| 2026-05-07 16:55 | 35.33889 | 25.17540 | 93 ft | 5 kts | 9° |
| 2026-05-07 16:55 | 35.33909 | 25.17589 | 91 ft | 8 kts | 92° |
| 2026-05-07 16:55 | 35.33904 | 25.17651 | 91 ft | 6 kts | 96° |
| 2026-05-07 16:56 | 35.33899 | 25.17703 | 92 ft | 8 kts | 96° |
| 2026-05-07 16:56 | 35.33894 | 25.17785 | 92 ft | 9 kts | 94° |
| 2026-05-07 16:56 | 35.33883 | 25.17938 | 94 ft | 11 kts | 95° |
| 2026-05-07 16:57 | 35.33875 | 25.18045 | 92 ft | 14 kts | 95° |
| 2026-05-07 16:57 | 35.33865 | 25.18173 | 93 ft | 16 kts | 95° |
| 2026-05-07 16:57 | 35.33856 | 25.18310 | 92 ft | 17 kts | 95° |
| 2026-05-07 16:57 | 35.33845 | 25.18459 | 90 ft | 19 kts | 95° |
| 2026-05-07 16:58 | 35.33835 | 25.18614 | 90 ft | 15 kts | 95° |
| 2026-05-07 16:58 | 35.33827 | 25.18728 | 90 ft | 12 kts | 95° |
| 2026-05-07 16:58 | 35.33821 | 25.18810 | 90 ft | 8 kts | 95° |
| 2026-05-07 16:58 | 35.33819 | 25.18839 | 90 ft | 0 kts | 95° |
| 2026-05-07 17:04 | 35.33818 | 25.18861 | 90 ft | 10 kts | 95° |
| 2026-05-07 17:04 | 35.33852 | 25.18992 | 92 ft | 23 kts | 54° |
| 2026-05-07 17:05 | 35.33906 | 25.19009 | 89 ft | 7 kts | 269° |
| 2026-05-07 17:05 | 35.33907 | 25.18981 | 87 ft | 5 kts | 275° |
| 2026-05-07 17:05 | 35.33936 | 25.18575 | 89 ft | 81 kts | 274° |
| 2026-05-07 17:05 | 35.34000 | 25.17627 | 92 ft | 139 kts | 275° |
| 2026-05-07 17:06 | 35.34061 | 25.16755 | 110 ft | 168 kts | 273° |
| 2026-05-07 17:06 | 35.34165 | 25.15330 | 717 ft | 169 kts | 275° |
| 2026-05-07 17:06 | 35.34276 | 25.13877 | 1337 ft | 174 kts | 276° |
| 2026-05-07 17:06 | 35.34386 | 25.12380 | 1966 ft | 180 kts | 275° |
| 2026-05-07 17:07 | 35.34488 | 25.10893 | 2710 ft | 171 kts | 275° |
| 2026-05-07 17:07 | 35.34655 | 25.09462 | 3312 ft | 169 kts | 283° |
| 2026-05-07 17:07 | 35.34921 | 25.08058 | 3843 ft | 171 kts | 285° |
| 2026-05-07 17:07 | 35.35224 | 25.06638 | 4339 ft | 175 kts | 292° |
| 2026-05-07 17:08 | 35.35972 | 25.05404 | 4583 ft | 193 kts | 327° |
| 2026-05-07 17:08 | 35.37318 | 25.04914 | 4788 ft | 217 kts | 353° |
| 2026-05-07 17:08 | 35.38906 | 25.04728 | 5063 ft | 241 kts | 355° |
| 2026-05-07 17:08 | 35.40657 | 25.04545 | 5457 ft | 262 kts | 355° |
| 2026-05-07 17:09 | 35.42501 | 25.04355 | 6198 ft | 269 kts | 355° |
| 2026-05-07 17:09 | 35.44377 | 25.04155 | 7003 ft | 272 kts | 355° |
| 2026-05-07 17:09 | 35.46182 | 25.03955 | 7785 ft | 274 kts | 355° |
| 2026-05-07 17:09 | 35.48090 | 25.03739 | 8603 ft | 276 kts | 354° |
| 2026-05-07 17:10 | 35.50013 | 25.03518 | 9426 ft | 279 kts | 354° |
| 2026-05-07 17:10 | 35.51955 | 25.03295 | 10215 ft | 282 kts | 354° |
| 2026-05-07 17:10 | 35.53969 | 25.03062 | 10558 ft | 302 kts | 354° |
| 2026-05-07 17:10 | 35.56142 | 25.02809 | 10740 ft | 325 kts | 354° |
| 2026-05-07 17:11 | 35.58468 | 25.02540 | 10958 ft | 344 kts | 354° |
| 2026-05-07 17:11 | 35.60881 | 25.02262 | 11521 ft | 351 kts | 354° |
| 2026-05-07 17:11 | 35.63329 | 25.01977 | 12190 ft | 355 kts | 353° |
| 2026-05-07 17:11 | 35.65795 | 25.01689 | 12866 ft | 358 kts | 353° |
| 2026-05-07 17:12 | 35.68283 | 25.01400 | 13548 ft | 361 kts | 353° |
| 2026-05-07 17:12 | 35.70793 | 25.01064 | 14175 ft | 364 kts | 348° |
| 2026-05-07 17:12 | 35.73234 | 25.00254 | 14759 ft | 365 kts | 338° |
| 2026-05-07 17:12 | 35.75615 | 24.99133 | 15361 ft | 367 kts | 338° |
| 2026-05-07 17:13 | 35.78011 | 24.98002 | 15960 ft | 370 kts | 338° |
| 2026-05-07 17:13 | 35.80419 | 24.96864 | 16563 ft | 372 kts | 337° |
| 2026-05-07 17:13 | 35.82846 | 24.95722 | 17155 ft | 375 kts | 337° |
| 2026-05-07 17:13 | 35.85292 | 24.94573 | 17743 ft | 378 kts | 337° |
| 2026-05-07 17:14 | 35.87755 | 24.93416 | 18341 ft | 380 kts | 337° |
| 2026-05-07 17:14 | 35.90235 | 24.92246 | 18854 ft | 383 kts | 337° |
| 2026-05-07 17:14 | 35.92699 | 24.91080 | 19352 ft | 386 kts | 337° |
| 2026-05-07 17:14 | 35.95212 | 24.89889 | 19847 ft | 388 kts | 337° |
| 2026-05-07 17:15 | 35.97773 | 24.88675 | 20344 ft | 391 kts | 337° |
| 2026-05-07 17:15 | 36.00317 | 24.87470 | 20816 ft | 393 kts | 338° |
| 2026-05-07 17:15 | 36.02881 | 24.86257 | 21283 ft | 396 kts | 338° |
| 2026-05-07 17:15 | 36.05425 | 24.85055 | 21740 ft | 398 kts | 338° |
| 2026-05-07 17:16 | 36.08057 | 24.83814 | 22185 ft | 401 kts | 338° |
| 2026-05-07 17:16 | 36.10634 | 24.82598 | 22610 ft | 403 kts | 338° |
| 2026-05-07 17:16 | 36.13262 | 24.81356 | 23029 ft | 406 kts | 338° |
| 2026-05-07 17:16 | 36.15905 | 24.80104 | 23444 ft | 408 kts | 338° |
| 2026-05-07 17:17 | 36.18559 | 24.78843 | 23820 ft | 410 kts | 338° |
| 2026-05-07 17:17 | 36.21228 | 24.77573 | 24153 ft | 412 kts | 338° |
| 2026-05-07 17:17 | 36.23911 | 24.76298 | 24494 ft | 414 kts | 338° |
| 2026-05-07 17:17 | 36.26602 | 24.75019 | 24835 ft | 415 kts | 338° |
| 2026-05-07 17:18 | 36.29307 | 24.73731 | 25163 ft | 417 kts | 337° |
| 2026-05-07 17:18 | 36.32013 | 24.72441 | 25494 ft | 418 kts | 337° |
| 2026-05-07 17:18 | 36.34730 | 24.71146 | 25814 ft | 419 kts | 337° |
| 2026-05-07 17:18 | 36.37460 | 24.69842 | 26131 ft | 421 kts | 337° |
| 2026-05-07 17:19 | 36.40192 | 24.68532 | 26440 ft | 422 kts | 337° |
| 2026-05-07 17:19 | 36.42938 | 24.67218 | 26740 ft | 423 kts | 337° |
| 2026-05-07 17:19 | 36.45690 | 24.65900 | 27043 ft | 424 kts | 337° |
| 2026-05-07 17:19 | 36.48446 | 24.64578 | 27329 ft | 426 kts | 336° |
| 2026-05-07 17:20 | 36.51215 | 24.63248 | 27604 ft | 427 kts | 336° |
| 2026-05-07 17:20 | 36.53995 | 24.61916 | 27879 ft | 428 kts | 336° |
| 2026-05-07 17:20 | 36.56775 | 24.60588 | 28143 ft | 429 kts | 336° |
| 2026-05-07 17:20 | 36.59566 | 24.59253 | 28390 ft | 430 kts | 336° |
| 2026-05-07 17:21 | 36.62368 | 24.57911 | 28631 ft | 432 kts | 336° |
| 2026-05-07 17:21 | 36.65172 | 24.56567 | 28895 ft | 431 kts | 336° |
| 2026-05-07 17:21 | 36.67964 | 24.55226 | 29246 ft | 430 kts | 336° |
| 2026-05-07 17:21 | 36.70747 | 24.53883 | 29586 ft | 428 kts | 336° |
| 2026-05-07 17:22 | 36.73518 | 24.52542 | 29937 ft | 427 kts | 336° |
| 2026-05-07 17:22 | 36.76214 | 24.51047 | 30277 ft | 423 kts | 331° |
| 2026-05-07 17:22 | 36.78848 | 24.49417 | 30579 ft | 422 kts | 331° |
| 2026-05-07 17:22 | 36.81471 | 24.47798 | 30871 ft | 420 kts | 330° |
| 2026-05-07 17:23 | 36.84093 | 24.46180 | 31155 ft | 419 kts | 330° |
| 2026-05-07 17:23 | 36.86701 | 24.44572 | 31442 ft | 418 kts | 330° |
| 2026-05-07 17:23 | 36.89303 | 24.42966 | 31731 ft | 416 kts | 330° |
| 2026-05-07 17:23 | 36.91896 | 24.41362 | 32012 ft | 415 kts | 330° |
| 2026-05-07 17:24 | 36.94479 | 24.39760 | 32300 ft | 414 kts | 330° |
| 2026-05-07 17:24 | 36.97058 | 24.38162 | 32588 ft | 413 kts | 330° |
| 2026-05-07 17:24 | 36.99626 | 24.36571 | 32881 ft | 411 kts | 330° |
| 2026-05-07 17:24 | 37.02186 | 24.34984 | 33177 ft | 410 kts | 330° |
| 2026-05-07 17:25 | 37.04739 | 24.33398 | 33477 ft | 409 kts | 330° |
| 2026-05-07 17:25 | 37.07286 | 24.31819 | 33746 ft | 408 kts | 330° |
| 2026-05-07 17:25 | 37.09821 | 24.30248 | 34046 ft | 406 kts | 330° |
| 2026-05-07 17:25 | 37.12353 | 24.28677 | 34301 ft | 405 kts | 329° |
| 2026-05-07 17:26 | 37.14876 | 24.27107 | 34530 ft | 405 kts | 329° |
| 2026-05-07 17:26 | 37.17392 | 24.25534 | 34751 ft | 404 kts | 329° |
| 2026-05-07 17:26 | 37.19904 | 24.23962 | 34984 ft | 403 kts | 329° |
| 2026-05-07 17:26 | 37.22413 | 24.22392 | 35193 ft | 403 kts | 330° |
| 2026-05-07 17:27 | 37.24923 | 24.20821 | 35391 ft | 403 kts | 330° |
| 2026-05-07 17:27 | 37.27426 | 24.19251 | 35590 ft | 402 kts | 330° |
| 2026-05-07 17:27 | 37.29924 | 24.17682 | 35792 ft | 401 kts | 330° |
| 2026-05-07 17:27 | 37.32418 | 24.16118 | 35990 ft | 401 kts | 330° |
| 2026-05-07 17:28 | 37.34917 | 24.14554 | 36112 ft | 402 kts | 330° |
| 2026-05-07 17:28 | 37.37422 | 24.12984 | 36136 ft | 403 kts | 330° |
| 2026-05-07 17:28 | 37.42431 | 24.09837 | 36140 ft | 403 kts | 330° |
| 2026-05-07 17:29 | 37.47446 | 24.06688 | 36137 ft | 402 kts | 330° |
| 2026-05-07 17:29 | 37.52452 | 24.03541 | 36137 ft | 402 kts | 329° |
| 2026-05-07 17:30 | 37.57451 | 24.00388 | 36134 ft | 401 kts | 329° |
| 2026-05-07 17:30 | 37.62440 | 23.97223 | 36138 ft | 401 kts | 329° |
| 2026-05-07 17:31 | 37.67424 | 23.94062 | 36136 ft | 401 kts | 329° |
| 2026-05-07 17:31 | 37.72413 | 23.90908 | 36141 ft | 401 kts | 329° |
| 2026-05-07 17:32 | 37.77400 | 23.87751 | 36141 ft | 400 kts | 329° |
| 2026-05-07 17:32 | 37.81534 | 23.85120 | 36148 ft | 400 kts | 329° |
| 2026-05-07 17:33 | 37.87348 | 23.81421 | 36146 ft | 400 kts | 329° |
| 2026-05-07 17:33 | 37.92366 | 23.78347 | 36150 ft | 401 kts | 331° |
| 2026-05-07 17:34 | 37.97479 | 23.75504 | 36148 ft | 401 kts | 332° |
| 2026-05-07 17:34 | 38.02594 | 23.72695 | 36151 ft | 400 kts | 332° |
| 2026-05-07 17:35 | 38.07684 | 23.69850 | 36146 ft | 399 kts | 331° |
| 2026-05-07 17:35 | 38.12745 | 23.66970 | 36150 ft | 398 kts | 331° |
| 2026-05-07 17:36 | 38.17793 | 23.64083 | 36143 ft | 398 kts | 331° |
| 2026-05-07 17:36 | 38.22846 | 23.61205 | 36143 ft | 397 kts | 331° |
| 2026-05-07 17:37 | 38.27891 | 23.58337 | 36139 ft | 397 kts | 331° |
| 2026-05-07 17:37 | 38.32935 | 23.55464 | 36135 ft | 397 kts | 331° |
| 2026-05-07 17:38 | 38.37976 | 23.52589 | 36126 ft | 397 kts | 330° |
| 2026-05-07 17:38 | 38.42973 | 23.49730 | 36120 ft | 396 kts | 330° |
| 2026-05-07 17:39 | 38.48000 | 23.46848 | 36120 ft | 396 kts | 330° |
| 2026-05-07 17:39 | 38.50484 | 23.45426 | 36092 ft | 384 kts | 329° |
| 2026-05-07 17:39 | 38.52892 | 23.44057 | 36106 ft | 375 kts | 329° |
| 2026-05-07 17:40 | 38.57607 | 23.41358 | 36112 ft | 370 kts | 328° |
| 2026-05-07 17:40 | 38.62284 | 23.38651 | 36108 ft | 369 kts | 328° |
| 2026-05-07 17:41 | 38.66955 | 23.35949 | 36116 ft | 368 kts | 328° |
| 2026-05-07 17:41 | 38.71625 | 23.33253 | 36113 ft | 368 kts | 328° |
| 2026-05-07 17:42 | 38.76288 | 23.30555 | 36124 ft | 368 kts | 328° |
| 2026-05-07 17:42 | 38.80954 | 23.27858 | 36129 ft | 367 kts | 328° |
| 2026-05-07 17:43 | 38.85614 | 23.25164 | 36124 ft | 367 kts | 328° |
| 2026-05-07 17:43 | 38.90273 | 23.22461 | 36118 ft | 367 kts | 328° |
| 2026-05-07 17:44 | 38.94928 | 23.19753 | 36113 ft | 367 kts | 328° |
| 2026-05-07 17:44 | 38.99586 | 23.17036 | 36103 ft | 368 kts | 328° |
| 2026-05-07 17:45 | 39.04250 | 23.14315 | 36102 ft | 368 kts | 328° |
| 2026-05-07 17:45 | 39.08883 | 23.11604 | 36107 ft | 368 kts | 328° |
| 2026-05-07 17:46 | 39.13552 | 23.08873 | 36109 ft | 369 kts | 328° |
| 2026-05-07 17:46 | 39.18227 | 23.06136 | 36112 ft | 369 kts | 327° |
| 2026-05-07 17:47 | 39.22901 | 23.03395 | 36116 ft | 369 kts | 327° |
| 2026-05-07 17:47 | 39.27578 | 23.00648 | 36121 ft | 369 kts | 327° |
| 2026-05-07 17:48 | 39.32250 | 22.97900 | 36122 ft | 369 kts | 327° |
| 2026-05-07 17:48 | 39.36924 | 22.95155 | 36123 ft | 369 kts | 327° |
| 2026-05-07 17:49 | 39.41591 | 22.92401 | 36127 ft | 369 kts | 327° |
| 2026-05-07 17:49 | 39.46256 | 22.89636 | 36127 ft | 369 kts | 327° |
| 2026-05-07 17:50 | 39.50923 | 22.86870 | 36129 ft | 369 kts | 327° |
| 2026-05-07 17:50 | 39.55590 | 22.84105 | 36127 ft | 369 kts | 327° |
| 2026-05-07 17:51 | 39.59475 | 22.81813 | 36125 ft | 369 kts | 327° |
| 2026-05-07 17:51 | 39.64929 | 22.78562 | 36124 ft | 369 kts | 327° |
| 2026-05-07 17:52 | 39.68811 | 22.76245 | 36126 ft | 369 kts | 327° |
| 2026-05-07 17:52 | 39.73482 | 22.73464 | 36124 ft | 370 kts | 327° |
| 2026-05-07 17:53 | 39.78167 | 22.70675 | 36119 ft | 371 kts | 327° |
| 2026-05-07 17:53 | 39.82854 | 22.67882 | 36124 ft | 371 kts | 327° |
| 2026-05-07 17:54 | 39.87533 | 22.65081 | 36129 ft | 370 kts | 327° |
| 2026-05-07 17:54 | 39.92207 | 22.62282 | 36127 ft | 369 kts | 326° |
| 2026-05-07 17:55 | 39.96873 | 22.59481 | 36125 ft | 370 kts | 327° |
| 2026-05-07 17:55 | 40.01544 | 22.56674 | 36116 ft | 370 kts | 326° |
| 2026-05-07 17:56 | 40.06208 | 22.53860 | 36123 ft | 369 kts | 326° |
| 2026-05-07 17:56 | 40.10876 | 22.51042 | 36123 ft | 370 kts | 326° |
| 2026-05-07 17:57 | 40.15546 | 22.48226 | 36123 ft | 370 kts | 326° |
| 2026-05-07 17:57 | 40.20219 | 22.45394 | 36124 ft | 370 kts | 326° |
| 2026-05-07 17:58 | 40.24897 | 22.42553 | 36122 ft | 371 kts | 326° |
| 2026-05-07 17:58 | 40.29581 | 22.39706 | 36123 ft | 371 kts | 326° |
| 2026-05-07 17:59 | 40.34271 | 22.36858 | 36122 ft | 372 kts | 326° |
| 2026-05-07 17:59 | 40.38967 | 22.34008 | 36119 ft | 372 kts | 326° |
| 2026-05-07 18:00 | 40.43661 | 22.31146 | 36115 ft | 372 kts | 326° |
| 2026-05-07 18:00 | 40.48364 | 22.28276 | 36115 ft | 373 kts | 326° |
| 2026-05-07 18:01 | 40.53075 | 22.25400 | 36120 ft | 373 kts | 326° |
| 2026-05-07 18:01 | 40.57785 | 22.22514 | 36124 ft | 373 kts | 326° |
| 2026-05-07 18:02 | 40.64849 | 22.18174 | 36131 ft | 374 kts | 326° |
| 2026-05-07 18:03 | 40.69531 | 22.15292 | 36133 ft | 374 kts | 326° |
| 2026-05-07 18:03 | 40.74250 | 22.12395 | 36136 ft | 374 kts | 326° |
| 2026-05-07 18:04 | 40.78968 | 22.09483 | 36132 ft | 375 kts | 326° |
| 2026-05-07 18:04 | 40.83690 | 22.06559 | 36133 ft | 375 kts | 326° |
| 2026-05-07 18:05 | 40.88412 | 22.03639 | 36135 ft | 375 kts | 326° |
| 2026-05-07 18:05 | 40.93133 | 22.00710 | 36130 ft | 375 kts | 325° |
| 2026-05-07 18:06 | 40.97851 | 21.97774 | 36131 ft | 375 kts | 325° |
| 2026-05-07 18:06 | 41.02575 | 21.94833 | 36124 ft | 376 kts | 325° |
| 2026-05-07 18:07 | 41.07313 | 21.91893 | 36117 ft | 377 kts | 327° |
| 2026-05-07 18:07 | 41.12305 | 21.89473 | 36127 ft | 383 kts | 330° |
| 2026-05-07 18:08 | 41.17330 | 21.87105 | 36129 ft | 384 kts | 330° |
| 2026-05-07 18:08 | 41.22359 | 21.84734 | 36121 ft | 383 kts | 330° |
| 2026-05-07 18:09 | 41.27387 | 21.82348 | 36120 ft | 384 kts | 330° |
| 2026-05-07 18:09 | 41.32410 | 21.79959 | 36109 ft | 384 kts | 330° |
| 2026-05-07 18:10 | 41.37454 | 21.77561 | 36111 ft | 385 kts | 330° |
| 2026-05-07 18:10 | 41.42510 | 21.75155 | 36101 ft | 386 kts | 330° |
| 2026-05-07 18:11 | 41.47578 | 21.72735 | 36099 ft | 387 kts | 330° |
| 2026-05-07 18:11 | 41.52666 | 21.70297 | 36094 ft | 389 kts | 330° |
| 2026-05-07 18:12 | 41.57773 | 21.67857 | 36094 ft | 391 kts | 331° |
| 2026-05-07 18:12 | 41.62901 | 21.65401 | 36088 ft | 392 kts | 331° |
| 2026-05-07 18:13 | 41.68052 | 21.62936 | 36096 ft | 394 kts | 331° |
| 2026-05-07 18:13 | 41.73215 | 21.60452 | 36086 ft | 394 kts | 331° |
| 2026-05-07 18:14 | 41.78388 | 21.57951 | 36093 ft | 397 kts | 332° |
| 2026-05-07 18:14 | 41.83603 | 21.55429 | 36092 ft | 399 kts | 332° |
| 2026-05-07 18:15 | 41.88838 | 21.52895 | 36091 ft | 401 kts | 332° |
| 2026-05-07 18:15 | 41.94093 | 21.50349 | 36086 ft | 403 kts | 332° |
| 2026-05-07 18:16 | 41.99375 | 21.47786 | 36087 ft | 405 kts | 332° |
| 2026-05-07 18:16 | 42.04687 | 21.45202 | 36085 ft | 407 kts | 332° |
| 2026-05-07 18:17 | 42.10018 | 21.42607 | 36086 ft | 409 kts | 333° |
| 2026-05-07 18:17 | 42.15381 | 21.39996 | 36086 ft | 411 kts | 333° |
| 2026-05-07 18:18 | 42.20844 | 21.37698 | 36085 ft | 417 kts | 337° |
| 2026-05-07 18:18 | 42.26486 | 21.35738 | 36088 ft | 420 kts | 338° |
| 2026-05-07 18:19 | 42.32148 | 21.33766 | 36083 ft | 421 kts | 338° |
| 2026-05-07 18:19 | 42.37845 | 21.31685 | 36085 ft | 422 kts | 338° |
| 2026-05-07 18:20 | 42.43478 | 21.29579 | 36091 ft | 423 kts | 338° |
| 2026-05-07 18:20 | 42.49168 | 21.27457 | 36086 ft | 425 kts | 338° |
| 2026-05-07 18:21 | 42.54883 | 21.25339 | 36090 ft | 426 kts | 338° |
| 2026-05-07 18:21 | 42.60646 | 21.23192 | 36089 ft | 427 kts | 338° |
| 2026-05-07 18:22 | 42.66356 | 21.21066 | 36090 ft | 429 kts | 338° |
| 2026-05-07 18:22 | 42.72116 | 21.18915 | 36090 ft | 430 kts | 338° |
| 2026-05-07 18:23 | 42.77890 | 21.16747 | 36088 ft | 431 kts | 338° |
| 2026-05-07 18:23 | 42.83682 | 21.14570 | 36084 ft | 432 kts | 338° |
| 2026-05-07 18:24 | 42.89484 | 21.12386 | 36075 ft | 433 kts | 338° |
| 2026-05-07 18:24 | 42.95308 | 21.10199 | 36073 ft | 434 kts | 339° |
| 2026-05-07 18:25 | 43.01134 | 21.08004 | 36077 ft | 435 kts | 339° |
| 2026-05-07 18:25 | 43.06973 | 21.05802 | 36075 ft | 436 kts | 339° |
| 2026-05-07 18:26 | 43.12765 | 21.03413 | 36075 ft | 432 kts | 333° |
| 2026-05-07 18:26 | 43.18348 | 21.00357 | 36073 ft | 432 kts | 333° |
| 2026-05-07 18:27 | 43.23944 | 20.97305 | 36072 ft | 433 kts | 333° |
| 2026-05-07 18:27 | 43.29549 | 20.94247 | 36068 ft | 434 kts | 333° |
| 2026-05-07 18:28 | 43.35158 | 20.91176 | 36057 ft | 434 kts | 333° |
| 2026-05-07 18:28 | 43.40779 | 20.88089 | 36063 ft | 435 kts | 333° |
| 2026-05-07 18:29 | 43.46399 | 20.84993 | 36064 ft | 435 kts | 333° |
| 2026-05-07 18:29 | 43.52023 | 20.81885 | 36058 ft | 436 kts | 333° |
| 2026-05-07 18:30 | 43.57651 | 20.78763 | 36061 ft | 436 kts | 333° |
| 2026-05-07 18:30 | 43.63285 | 20.75648 | 36059 ft | 436 kts | 333° |
| 2026-05-07 18:31 | 43.68924 | 20.72526 | 36059 ft | 437 kts | 333° |
| 2026-05-07 18:31 | 43.74570 | 20.69385 | 36059 ft | 437 kts | 333° |
| 2026-05-07 18:32 | 43.80220 | 20.66231 | 36060 ft | 438 kts | 333° |
| 2026-05-07 18:32 | 43.85871 | 20.63071 | 36061 ft | 438 kts | 333° |
| 2026-05-07 18:33 | 43.91531 | 20.59902 | 36060 ft | 439 kts | 333° |
| 2026-05-07 18:33 | 43.97194 | 20.56732 | 36057 ft | 439 kts | 333° |
| 2026-05-07 18:34 | 44.02865 | 20.53554 | 36048 ft | 440 kts | 333° |
| 2026-05-07 18:34 | 44.07583 | 20.50900 | 36044 ft | 440 kts | 333° |
| 2026-05-07 18:35 | 44.14180 | 20.47166 | 36044 ft | 441 kts | 333° |
| 2026-05-07 18:35 | 44.19900 | 20.43928 | 36055 ft | 441 kts | 333° |
| 2026-05-07 18:36 | 44.24631 | 20.41254 | 36055 ft | 442 kts | 333° |
| 2026-05-07 18:36 | 44.30324 | 20.38026 | 36050 ft | 442 kts | 333° |
| 2026-05-07 18:37 | 44.36023 | 20.34777 | 36044 ft | 442 kts | 333° |
| 2026-05-07 18:37 | 44.41728 | 20.31521 | 36051 ft | 443 kts | 333° |
| 2026-05-07 18:38 | 44.47436 | 20.28259 | 36044 ft | 444 kts | 333° |
| 2026-05-07 18:38 | 44.53156 | 20.24995 | 36051 ft | 444 kts | 333° |
| 2026-05-07 18:39 | 44.58877 | 20.21709 | 36055 ft | 445 kts | 333° |
| 2026-05-07 18:39 | 44.64607 | 20.18411 | 36054 ft | 445 kts | 333° |
| 2026-05-07 18:40 | 44.70348 | 20.15112 | 36056 ft | 446 kts | 333° |
| 2026-05-07 18:40 | 44.76053 | 20.11821 | 36059 ft | 447 kts | 333° |
| 2026-05-07 18:41 | 44.81801 | 20.08486 | 36058 ft | 447 kts | 333° |
| 2026-05-07 18:41 | 44.87558 | 20.05150 | 36037 ft | 448 kts | 333° |
| 2026-05-07 18:42 | 44.93325 | 20.01796 | 36040 ft | 448 kts | 333° |
| 2026-05-07 18:42 | 44.99097 | 19.98423 | 36039 ft | 449 kts | 333° |
| 2026-05-07 18:43 | 45.04873 | 19.95051 | 36041 ft | 450 kts | 333° |
| 2026-05-07 18:43 | 45.10662 | 19.91676 | 36042 ft | 450 kts | 333° |
| 2026-05-07 18:44 | 45.16453 | 19.88287 | 36037 ft | 450 kts | 332° |
| 2026-05-07 18:44 | 45.22250 | 19.84884 | 36042 ft | 451 kts | 332° |
| 2026-05-07 18:45 | 45.28044 | 19.81462 | 36040 ft | 451 kts | 332° |
| 2026-05-07 18:45 | 45.33843 | 19.78035 | 36035 ft | 452 kts | 332° |
| 2026-05-07 18:46 | 45.39645 | 19.74613 | 36036 ft | 452 kts | 332° |
| 2026-05-07 18:46 | 45.45449 | 19.71172 | 36040 ft | 452 kts | 332° |
| 2026-05-07 18:47 | 45.51255 | 19.67723 | 36035 ft | 452 kts | 332° |
| 2026-05-07 18:47 | 45.57062 | 19.64267 | 36042 ft | 452 kts | 332° |
| 2026-05-07 18:48 | 45.62869 | 19.60799 | 36037 ft | 452 kts | 332° |
| 2026-05-07 18:48 | 45.68675 | 19.57324 | 36037 ft | 452 kts | 332° |
| 2026-05-07 18:49 | 45.74482 | 19.53847 | 36039 ft | 452 kts | 332° |
| 2026-05-07 18:49 | 45.80287 | 19.50357 | 36037 ft | 453 kts | 332° |
| 2026-05-07 18:50 | 45.86093 | 19.46859 | 36037 ft | 453 kts | 332° |
| 2026-05-07 18:50 | 45.91869 | 19.43280 | 36035 ft | 449 kts | 325° |
| 2026-05-07 18:51 | 45.96921 | 19.38203 | 36031 ft | 442 kts | 318° |
| 2026-05-07 18:51 | 46.01875 | 19.32953 | 36034 ft | 443 kts | 318° |
| 2026-05-07 18:52 | 46.06830 | 19.27679 | 36034 ft | 443 kts | 318° |
| 2026-05-07 18:52 | 46.11777 | 19.22389 | 36034 ft | 443 kts | 318° |
| 2026-05-07 18:53 | 46.16732 | 19.17092 | 36036 ft | 443 kts | 317° |
| 2026-05-07 18:53 | 46.21687 | 19.11791 | 36034 ft | 444 kts | 317° |
| 2026-05-07 18:54 | 46.26644 | 19.06478 | 36035 ft | 444 kts | 317° |
| 2026-05-07 18:54 | 46.31593 | 19.01146 | 36037 ft | 444 kts | 317° |
| 2026-05-07 18:55 | 46.36546 | 18.95801 | 36042 ft | 444 kts | 317° |
| 2026-05-07 18:55 | 46.41467 | 18.90483 | 36044 ft | 444 kts | 317° |
| 2026-05-07 18:56 | 46.46414 | 18.85120 | 36046 ft | 444 kts | 317° |
| 2026-05-07 18:56 | 46.51368 | 18.79753 | 36045 ft | 444 kts | 317° |
| 2026-05-07 18:57 | 46.56320 | 18.74377 | 36047 ft | 444 kts | 317° |
| 2026-05-07 18:57 | 46.61263 | 18.68980 | 36047 ft | 444 kts | 317° |
| 2026-05-07 18:58 | 46.66198 | 18.63570 | 36055 ft | 444 kts | 316° |
| 2026-05-07 18:58 | 46.71139 | 18.58158 | 36043 ft | 445 kts | 316° |
| 2026-05-07 18:59 | 46.76084 | 18.52733 | 36051 ft | 445 kts | 316° |
| 2026-05-07 18:59 | 46.81026 | 18.47288 | 36049 ft | 445 kts | 316° |
| 2026-05-07 19:00 | 46.85969 | 18.41828 | 36051 ft | 446 kts | 316° |
| 2026-05-07 19:00 | 46.90911 | 18.36352 | 36049 ft | 446 kts | 316° |
| 2026-05-07 19:01 | 46.95860 | 18.30866 | 36054 ft | 447 kts | 316° |
| 2026-05-07 19:01 | 47.00817 | 18.25367 | 36052 ft | 447 kts | 316° |
| 2026-05-07 19:02 | 47.05774 | 18.19840 | 36050 ft | 448 kts | 316° |
| 2026-05-07 19:02 | 47.10737 | 18.14297 | 36050 ft | 449 kts | 316° |
| 2026-05-07 19:03 | 47.15712 | 18.08730 | 36048 ft | 450 kts | 316° |
| 2026-05-07 19:03 | 47.20690 | 18.03144 | 36044 ft | 451 kts | 316° |
| 2026-05-07 19:04 | 47.25641 | 17.97578 | 36044 ft | 451 kts | 316° |
| 2026-05-07 19:04 | 47.30520 | 17.92075 | 36033 ft | 452 kts | 316° |
| 2026-05-07 19:05 | 47.35506 | 17.86435 | 36037 ft | 452 kts | 316° |
| 2026-05-07 19:05 | 47.40494 | 17.80780 | 36042 ft | 452 kts | 316° |
| 2026-05-07 19:06 | 47.45480 | 17.75111 | 36034 ft | 453 kts | 316° |
| 2026-05-07 19:06 | 47.52973 | 17.66580 | 36034 ft | 453 kts | 316° |
| 2026-05-07 19:07 | 47.57969 | 17.60870 | 36032 ft | 454 kts | 316° |
| 2026-05-07 19:07 | 47.62959 | 17.55144 | 36029 ft | 454 kts | 316° |
| 2026-05-07 19:08 | 47.67953 | 17.49401 | 36028 ft | 454 kts | 316° |
| 2026-05-07 19:08 | 47.72954 | 17.43661 | 36031 ft | 455 kts | 316° |
| 2026-05-07 19:09 | 47.77956 | 17.37899 | 36033 ft | 455 kts | 316° |
| 2026-05-07 19:09 | 47.82952 | 17.32110 | 36030 ft | 455 kts | 316° |
| 2026-05-07 19:10 | 47.87941 | 17.26305 | 36031 ft | 455 kts | 316° |
| 2026-05-07 19:10 | 47.92935 | 17.20494 | 36028 ft | 456 kts | 316° |
| 2026-05-07 19:11 | 47.97934 | 17.14678 | 36028 ft | 456 kts | 317° |
| 2026-05-07 19:11 | 48.02932 | 17.08842 | 36027 ft | 456 kts | 317° |
| 2026-05-07 19:12 | 48.07921 | 17.02994 | 36031 ft | 456 kts | 317° |
| 2026-05-07 19:12 | 48.12908 | 16.97131 | 36029 ft | 456 kts | 317° |
| 2026-05-07 19:13 | 48.17883 | 16.91260 | 36031 ft | 456 kts | 317° |
| 2026-05-07 19:13 | 48.22861 | 16.85382 | 36047 ft | 455 kts | 317° |
| 2026-05-07 19:14 | 48.27833 | 16.79492 | 36048 ft | 455 kts | 317° |
| 2026-05-07 19:14 | 48.32810 | 16.73601 | 36049 ft | 455 kts | 317° |
| 2026-05-07 19:15 | 48.37783 | 16.67696 | 36045 ft | 455 kts | 317° |
| 2026-05-07 19:15 | 48.42746 | 16.61765 | 36031 ft | 456 kts | 317° |
| 2026-05-07 19:16 | 48.47711 | 16.55826 | 36028 ft | 456 kts | 317° |
| 2026-05-07 19:16 | 48.52680 | 16.49880 | 36026 ft | 456 kts | 317° |
| 2026-05-07 19:17 | 48.57641 | 16.43907 | 36025 ft | 456 kts | 317° |
| 2026-05-07 19:17 | 48.62596 | 16.37909 | 36024 ft | 456 kts | 317° |
| 2026-05-07 19:18 | 48.67558 | 16.31912 | 36020 ft | 457 kts | 317° |
| 2026-05-07 19:18 | 48.72516 | 16.25908 | 36022 ft | 457 kts | 317° |
| 2026-05-07 19:19 | 48.77693 | 16.20284 | 35731 ft | 462 kts | 328° |
| 2026-05-07 19:19 | 48.80641 | 16.18278 | 35488 ft | 466 kts | 334° |
| 2026-05-07 19:19 | 48.82644 | 16.17088 | 35335 ft | 467 kts | 334° |
| 2026-05-07 19:20 | 48.86688 | 16.14677 | 35019 ft | 467 kts | 334° |
| 2026-05-07 19:20 | 48.89712 | 16.12865 | 34786 ft | 467 kts | 334° |
| 2026-05-07 19:20 | 48.92735 | 16.11046 | 34547 ft | 467 kts | 334° |
| 2026-05-07 19:20 | 48.95761 | 16.09218 | 34324 ft | 468 kts | 334° |
| 2026-05-07 19:21 | 48.97762 | 16.08004 | 34174 ft | 468 kts | 334° |
| 2026-05-07 19:21 | 49.01812 | 16.05542 | 33846 ft | 469 kts | 334° |
| 2026-05-07 19:21 | 49.04839 | 16.03701 | 33573 ft | 469 kts | 334° |
| 2026-05-07 19:21 | 49.06847 | 16.02478 | 33393 ft | 470 kts | 334° |
| 2026-05-07 19:22 | 49.09890 | 16.00626 | 33122 ft | 471 kts | 334° |
| 2026-05-07 19:22 | 49.12936 | 15.98774 | 32859 ft | 472 kts | 334° |
| 2026-05-07 19:22 | 49.15993 | 15.96915 | 32379 ft | 473 kts | 334° |
| 2026-05-07 19:22 | 49.20013 | 15.94475 | 31533 ft | 467 kts | 334° |
| 2026-05-07 19:23 | 49.22046 | 15.93240 | 31119 ft | 464 kts | 334° |
| 2026-05-07 19:23 | 49.25040 | 15.91412 | 30500 ft | 463 kts | 334° |
| 2026-05-07 19:23 | 49.28020 | 15.89581 | 29860 ft | 459 kts | 334° |
| 2026-05-07 19:23 | 49.30975 | 15.87762 | 29136 ft | 456 kts | 334° |
| 2026-05-07 19:24 | 49.33913 | 15.85955 | 28455 ft | 454 kts | 334° |
| 2026-05-07 19:24 | 49.36842 | 15.84152 | 27774 ft | 454 kts | 334° |
| 2026-05-07 19:24 | 49.39764 | 15.82356 | 27112 ft | 451 kts | 334° |
| 2026-05-07 19:24 | 49.42583 | 15.80346 | 26465 ft | 442 kts | 326° |
| 2026-05-07 19:25 | 49.45080 | 15.77688 | 25832 ft | 432 kts | 315° |
| 2026-05-07 19:25 | 49.47190 | 15.74484 | 25212 ft | 422 kts | 306° |
| 2026-05-07 19:25 | 49.48889 | 15.70863 | 24606 ft | 413 kts | 297° |
| 2026-05-07 19:25 | 49.50244 | 15.67004 | 24001 ft | 408 kts | 294° |
| 2026-05-07 19:26 | 49.51550 | 15.63161 | 23380 ft | 404 kts | 294° |
| 2026-05-07 19:26 | 49.52842 | 15.59346 | 22697 ft | 401 kts | 294° |
| 2026-05-07 19:26 | 49.54123 | 15.55545 | 22023 ft | 398 kts | 294° |
| 2026-05-07 19:26 | 49.55391 | 15.51770 | 21360 ft | 396 kts | 294° |
| 2026-05-07 19:27 | 49.56652 | 15.48007 | 20705 ft | 394 kts | 294° |
| 2026-05-07 19:27 | 49.57907 | 15.44268 | 20078 ft | 392 kts | 294° |
| 2026-05-07 19:27 | 49.59161 | 15.40537 | 19452 ft | 391 kts | 294° |
| 2026-05-07 19:27 | 49.60407 | 15.36821 | 18845 ft | 390 kts | 294° |
| 2026-05-07 19:28 | 49.61645 | 15.33113 | 18239 ft | 389 kts | 295° |
| 2026-05-07 19:28 | 49.62879 | 15.29410 | 17562 ft | 387 kts | 294° |
| 2026-05-07 19:28 | 49.64109 | 15.25719 | 16899 ft | 386 kts | 295° |
| 2026-05-07 19:28 | 49.65335 | 15.22042 | 16247 ft | 385 kts | 295° |
| 2026-05-07 19:29 | 49.66556 | 15.18375 | 15609 ft | 383 kts | 294° |
| 2026-05-07 19:29 | 49.67767 | 15.14721 | 14984 ft | 379 kts | 294° |
| 2026-05-07 19:29 | 49.68942 | 15.11177 | 14353 ft | 362 kts | 294° |
| 2026-05-07 19:29 | 49.70059 | 15.07828 | 13699 ft | 349 kts | 296° |
| 2026-05-07 19:30 | 49.71408 | 15.04716 | 12971 ft | 340 kts | 305° |
| 2026-05-07 19:30 | 49.72817 | 15.01918 | 12273 ft | 329 kts | 305° |
| 2026-05-07 19:30 | 49.74201 | 14.99163 | 11586 ft | 320 kts | 305° |
| 2026-05-07 19:30 | 49.75546 | 14.96476 | 10908 ft | 312 kts | 305° |
| 2026-05-07 19:31 | 49.76845 | 14.93880 | 10502 ft | 297 kts | 305° |
| 2026-05-07 19:31 | 49.78078 | 14.91415 | 10209 ft | 286 kts | 305° |
| 2026-05-07 19:31 | 49.79285 | 14.89000 | 9917 ft | 282 kts | 305° |
| 2026-05-07 19:31 | 49.80477 | 14.86609 | 9678 ft | 280 kts | 305° |
| 2026-05-07 19:32 | 49.81657 | 14.84222 | 9434 ft | 278 kts | 305° |
| 2026-05-07 19:32 | 49.82816 | 14.81868 | 9186 ft | 272 kts | 305° |
| 2026-05-07 19:32 | 49.83952 | 14.79561 | 8904 ft | 267 kts | 305° |
| 2026-05-07 19:32 | 49.85071 | 14.77289 | 8542 ft | 264 kts | 305° |
| 2026-05-07 19:33 | 49.86183 | 14.75026 | 8129 ft | 262 kts | 305° |
| 2026-05-07 19:33 | 49.87268 | 14.72821 | 7621 ft | 255 kts | 305° |
| 2026-05-07 19:33 | 49.88331 | 14.70662 | 7094 ft | 249 kts | 305° |
| 2026-05-07 19:33 | 49.89372 | 14.68545 | 6587 ft | 244 kts | 306° |
| 2026-05-07 19:34 | 49.90388 | 14.66478 | 6243 ft | 240 kts | 306° |
| 2026-05-07 19:34 | 49.91388 | 14.64439 | 5997 ft | 233 kts | 306° |
| 2026-05-07 19:34 | 49.92342 | 14.62475 | 5856 ft | 223 kts | 305° |
| 2026-05-07 19:34 | 49.92590 | 14.61963 | 5820 ft | 222 kts | 305° |
| 2026-05-07 19:35 | 49.93512 | 14.60070 | 5689 ft | 214 kts | 305° |
| 2026-05-07 19:35 | 49.94393 | 14.58271 | 5565 ft | 205 kts | 305° |
| 2026-05-07 19:35 | 49.95240 | 14.56538 | 5436 ft | 198 kts | 305° |
| 2026-05-07 19:35 | 49.96063 | 14.54856 | 5312 ft | 194 kts | 305° |
| 2026-05-07 19:36 | 49.96882 | 14.53180 | 5204 ft | 195 kts | 305° |
| 2026-05-07 19:36 | 49.97702 | 14.51501 | 4983 ft | 195 kts | 305° |
| 2026-05-07 19:36 | 49.98519 | 14.49828 | 4729 ft | 194 kts | 305° |
| 2026-05-07 19:36 | 49.99331 | 14.48164 | 4471 ft | 192 kts | 306° |
| 2026-05-07 19:37 | 50.00123 | 14.46539 | 4221 ft | 183 kts | 306° |
| 2026-05-07 19:37 | 50.00861 | 14.45027 | 3960 ft | 169 kts | 306° |
| 2026-05-07 19:37 | 50.01552 | 14.43607 | 3738 ft | 162 kts | 306° |
| 2026-05-07 19:37 | 50.02224 | 14.42225 | 3556 ft | 157 kts | 306° |
| 2026-05-07 19:38 | 50.02851 | 14.40937 | 3358 ft | 144 kts | 307° |
| 2026-05-07 19:38 | 50.03445 | 14.39716 | 3154 ft | 140 kts | 308° |
| 2026-05-07 19:38 | 50.04031 | 14.38509 | 2975 ft | 139 kts | 308° |
| 2026-05-07 19:38 | 50.04613 | 14.37313 | 2801 ft | 139 kts | 309° |
| 2026-05-07 19:39 | 50.05187 | 14.36113 | 2608 ft | 139 kts | 309° |
| 2026-05-07 19:39 | 50.05760 | 14.34909 | 2448 ft | 138 kts | 310° |
| 2026-05-07 19:39 | 50.06354 | 14.33749 | 2279 ft | 137 kts | 310° |
| 2026-05-07 19:39 | 50.06923 | 14.32558 | 2014 ft | 136 kts | 308° |
| 2026-05-07 19:40 | 50.07483 | 14.31375 | 1806 ft | 136 kts | 310° |
| 2026-05-07 19:40 | 50.08054 | 14.30197 | 1611 ft | 136 kts | 308° |
| 2026-05-07 19:40 | 50.08629 | 14.29025 | 1407 ft | 137 kts | 309° |
| 2026-05-07 19:40 | 50.09197 | 14.27847 | 1224 ft | 133 kts | 309° |
| 2026-05-07 19:41 | 50.09685 | 14.26854 | 1209 ft | 91 kts | 308° |
| 2026-05-07 19:41 | 50.09969 | 14.26267 | 1197 ft | 51 kts | 307° |
| 2026-05-07 19:41 | 50.10156 | 14.25876 | 1189 ft | 31 kts | 307° |
| 2026-05-07 19:41 | 50.10252 | 14.25720 | 1188 ft | 17 kts | 328° |
| 2026-05-07 19:42 | 50.10356 | 14.25660 | 1184 ft | 14 kts | 349° |
| 2026-05-07 19:42 | 50.10460 | 14.25669 | 1182 ft | 14 kts | 23° |
| 2026-05-07 19:42 | 50.10494 | 14.25788 | 1178 ft | 12 kts | 77° |
| 2026-05-07 19:42 | 50.10509 | 14.25913 | 1174 ft | 11 kts | 79° |
| 2026-05-07 19:43 | 50.10522 | 14.26024 | 1172 ft | 10 kts | 79° |
| 2026-05-07 19:43 | 50.10535 | 14.26128 | 1172 ft | 9 kts | 79° |
| 2026-05-07 19:43 | 50.10537 | 14.26222 | 1174 ft | 8 kts | 100° |
| 2026-05-07 19:43 | 50.10510 | 14.26305 | 1173 ft | 9 kts | 124° |
| 2026-05-07 19:44 | 50.10475 | 14.26381 | 1172 ft | 8 kts | 125° |
| 2026-05-07 19:44 | 50.10445 | 14.26449 | 1174 ft | 7 kts | 125° |
| 2026-05-07 19:44 | 50.10418 | 14.26510 | 1172 ft | 6 kts | 125° |
| 2026-05-07 19:44 | 50.10406 | 14.26555 | 1173 ft | 4 kts | 75° |
| 2026-05-07 19:45 | 50.10415 | 14.26561 | 1172 ft | 1 kts | 32° |
| 2026-05-07 19:45 | 50.10420 | 14.26567 | 1171 ft | 2 kts | 34° |
| 2026-05-07 19:45 | 50.10428 | 14.26575 | 1172 ft | 1 kts | 34° |
| 2026-05-07 19:45 | 50.10433 | 14.26581 | 1172 ft | 0 kts | 34° |
| 2026-05-07 19:46 | 50.10437 | 14.26585 | 1172 ft | 0 kts | 34° |